Time;durP1;ratioP1;P1;durP2;ratioP2;P2;SDS_P1;SDS_P2;PMS_P1;PMS_P2;Temp;Humidity;BMP_temperature;BMP_pressure;BME280_temperature;BME280_humidity;BME280_pressure;Samples;Min_cycle;Max_cycle;Signal;HPM_P1;HPM_P2
2022/04/03 00:00:10;;;;;;;;;;;4.30;94.80;;;;;;4313820;33;45904;-84
2022/04/03 00:02:37;;;;;;;;;;;4.30;94.80;;;;;;4301345;33;43934;-84
2022/04/03 00:05:05;;;;;;;;;;;4.30;94.70;;;;;;4313578;33;43480;-84
2022/04/03 00:07:32;;;;;;;;;;;4.20;94.40;;;;;;4302518;33;44203;-84
2022/04/03 00:10:00;;;;;;;;;;;4.20;94.60;;;;;;4301545;33;43297;-83
2022/04/03 00:12:27;;;;;;;;;;;4.20;94.80;;;;;;4302796;33;44267;-84
2022/04/03 00:14:54;;;;;;;;;;;4.20;94.70;;;;;;4302822;33;42803;-83
2022/04/03 00:17:21;;;;;;;;;;;4.20;95.00;;;;;;4313233;33;44960;-84
2022/04/03 00:19:48;;;;;;;;;;;4.20;94.60;;;;;;4302509;33;43892;-83
2022/04/03 00:22:15;;;;;;;;;;;4.20;94.80;;;;;;4302385;33;44268;-84
2022/04/03 00:24:43;;;;;;;;;;;4.20;94.70;;;;;;4302501;33;44876;-84
2022/04/03 00:27:10;;;;;;;;;;;4.20;94.60;;;;;;4313309;33;43783;-84
2022/04/03 00:29:37;;;;;;;;;;;4.20;94.70;;;;;;4301567;33;43353;-83
2022/04/03 00:32:04;;;;;;;;;;;4.20;94.70;;;;;;4302575;33;44202;-83
2022/04/03 00:34:31;;;;;;;;;;;4.20;94.20;;;;;;4302213;33;44216;-84
2022/04/03 00:36:59;;;;;;;;;;;4.10;94.40;;;;;;4302434;33;44254;-83
2022/04/03 00:39:26;;;;;;;;;;;4.10;94.40;;;;;;4313154;33;44764;-83
2022/04/03 00:41:54;;;;;;;;;;;4.10;94.50;;;;;;4302292;33;42728;-83
2022/04/03 00:44:21;;;;;;;;;;;4.10;94.10;;;;;;4301304;33;43894;-83
2022/04/03 00:46:48;;;;;;;;;;;4.10;94.30;;;;;;4302387;33;43289;-84
2022/04/03 00:49:17;;;;;;;;;;;4.10;94.40;;;;;;4313034;33;44780;-84
2022/04/03 00:51:44;;;;;;;;;;;4.10;94.20;;;;;;4302442;33;44252;-83
2022/04/03 00:54:12;;;;;;;;;;;4.10;94.20;;;;;;4312791;33;44152;-83
2022/04/03 00:56:39;;;;;;;;;;;4.10;94.40;;;;;;4302331;33;44264;-83
2022/04/03 00:59:06;;;;;;;;;;;4.00;94.60;;;;;;4301161;33;42228;-83
2022/04/03 01:01:33;;;;;;;;;;;4.00;94.50;;;;;;4304026;33;43922;-83
2022/04/03 01:04:00;;;;;;;;;;;4.00;94.30;;;;;;4303665;33;43975;-83
2022/04/03 01:06:28;;;;;;;;;;;4.00;94.40;;;;;;4316760;33;44105;-83
2022/04/03 01:08:55;;;;;;;;;;;4.00;94.40;;;;;;4303107;33;42644;-83
2022/04/03 01:11:22;;;;;;;;;;;4.00;94.40;;;;;;4316509;33;43071;-84
2022/04/03 01:13:50;;;;;;;;;;;4.00;94.40;;;;;;4303632;33;43408;-84
2022/04/03 01:16:18;;;;;;;;;;;4.00;94.30;;;;;;4302994;33;44261;-83
2022/04/03 01:18:45;;;;;;;;;;;4.00;94.30;;;;;;4303123;33;43415;-83
2022/04/03 01:21:13;;;;;;;;;;;3.90;94.20;;;;;;4302882;33;44200;-83
2022/04/03 01:23:40;;;;;;;;;;;3.90;94.20;;;;;;4303115;33;45007;-83
2022/04/03 01:26:08;;;;;;;;;;;3.90;94.20;;;;;;4316414;33;43931;-83
2022/04/03 01:28:35;;;;;;;;;;;3.90;94.30;;;;;;4315937;33;42713;-83
2022/04/03 01:31:02;;;;;;;;;;;3.90;93.70;;;;;;4302762;33;45854;-83
2022/04/03 01:33:29;;;;;;;;;;;3.90;94.10;;;;;;4302973;33;42963;-83
2022/04/03 01:35:56;;;;;;;;;;;3.90;94.00;;;;;;4303086;33;43764;-83
2022/04/03 01:38:23;;;;;;;;;;;3.90;94.20;;;;;;4316304;33;44102;-83
2022/04/03 01:40:50;;;;;;;;;;;3.90;94.30;;;;;;4315744;33;44665;-83
2022/04/03 01:43:18;;;;;;;;;;;3.90;93.80;;;;;;4315745;33;42922;-83
2022/04/03 01:45:45;;;;;;;;;;;3.80;94.00;;;;;;4316146;33;45814;-83
2022/04/03 01:48:12;;;;;;;;;;;3.80;94.10;;;;;;4302847;33;42790;-83
2022/04/03 01:50:39;;;;;;;;;;;3.80;94.10;;;;;;4302702;33;44011;-83
2022/04/03 01:53:06;;;;;;;;;;;3.80;94.10;;;;;;4303007;33;45811;-83
2022/04/03 01:55:33;;;;;;;;;;;3.80;94.20;;;;;;4315552;33;43771;-83
2022/04/03 01:58:00;;;;;;;;;;;3.80;94.00;;;;;;4302664;33;44094;-83
2022/04/03 02:00:27;;;;;;;;;;;3.80;94.00;;;;;;4302777;33;44197;-83
2022/04/03 02:02:54;;;;;;;;;;;3.80;93.90;;;;;;4315542;33;43257;-83
2022/04/03 02:05:22;;;;;;;;;;;3.80;94.10;;;;;;4315261;33;42957;-83
2022/04/03 02:07:49;;;;;;;;;;;3.80;94.10;;;;;;4302899;33;43459;-82
2022/04/03 02:10:16;;;;;;;;;;;3.70;94.10;;;;;;4314893;33;43907;-83
2022/04/03 02:12:43;;;;;;;;;;;3.80;94.00;;;;;;4302437;33;43269;-83
2022/04/03 02:15:15;;;;;;;;;;;3.80;94.10;;;;;;4315688;33;43624;-83
2022/04/03 02:17:42;;;;;;;;;;;3.70;94.10;;;;;;4302775;33;44850;-83
2022/04/03 02:20:09;;;;;;;;;;;3.70;93.90;;;;;;4315943;33;43510;-83
2022/04/03 02:22:36;;;;;;;;;;;3.70;93.90;;;;;;4315381;33;44325;-83
2022/04/03 02:25:04;;;;;;;;;;;3.70;94.00;;;;;;4302334;33;44917;-83
2022/04/03 02:27:31;;;;;;;;;;;3.70;93.90;;;;;;4302437;33;44274;-83
2022/04/03 02:29:58;;;;;;;;;;;3.70;93.90;;;;;;4302309;33;42532;-83
2022/04/03 02:32:25;;;;;;;;;;;3.70;93.80;;;;;;4315456;33;42308;-83
2022/04/03 02:34:52;;;;;;;;;;;3.60;93.90;;;;;;4315666;33;44669;-82
2022/04/03 02:37:19;;;;;;;;;;;3.70;93.90;;;;;;4315686;33;43872;-83
2022/04/03 02:39:46;;;;;;;;;;;3.70;93.90;;;;;;4302400;33;43081;-83
2022/04/03 02:42:13;;;;;;;;;;;3.60;93.80;;;;;;4315483;33;43201;-82
2022/04/03 02:44:41;;;;;;;;;;;3.60;93.90;;;;;;4314455;33;44226;-82
2022/04/03 02:47:08;;;;;;;;;;;3.60;93.90;;;;;;4315500;33;44761;-83
2022/04/03 02:49:35;;;;;;;;;;;3.60;94.00;;;;;;4314582;33;43490;-82
2022/04/03 02:52:03;;;;;;;;;;;3.60;93.90;;;;;;4302531;33;43482;-83
2022/04/03 02:54:30;;;;;;;;;;;3.60;94.00;;;;;;4302025;33;44163;-82
2022/04/03 02:56:58;;;;;;;;;;;3.60;93.90;;;;;;4315402;33;44218;-82
2022/04/03 02:59:25;;;;;;;;;;;3.60;94.00;;;;;;4315501;33;44017;-82
2022/04/03 03:01:52;;;;;;;;;;;3.50;94.00;;;;;;4315083;33;43525;-82
2022/04/03 03:04:19;;;;;;;;;;;3.50;94.00;;;;;;4302352;33;43262;-82
2022/04/03 03:06:46;;;;;;;;;;;3.50;93.90;;;;;;4302439;33;43356;-82
2022/04/03 03:09:13;;;;;;;;;;;3.50;94.00;;;;;;4302085;33;44015;-82
2022/04/03 03:11:40;;;;;;;;;;;3.50;93.90;;;;;;4315068;33;44259;-82
2022/04/03 03:14:07;;;;;;;;;;;3.50;93.90;;;;;;4314376;33;42804;-82
2022/04/03 03:16:34;;;;;;;;;;;3.40;94.00;;;;;;4315479;33;44254;-82
2022/04/03 03:19:01;;;;;;;;;;;3.40;93.90;;;;;;4317737;33;42548;-81
2022/04/03 03:21:28;;;;;;;;;;;3.40;93.80;;;;;;4318121;33;42352;-82
2022/04/03 03:23:55;;;;;;;;;;;3.40;93.90;;;;;;4304678;33;43400;-82
2022/04/03 03:26:22;;;;;;;;;;;3.40;93.90;;;;;;4316741;33;43192;-82
2022/04/03 03:28:49;;;;;;;;;;;3.40;94.00;;;;;;4317544;33;44275;-82
2022/04/03 03:31:17;;;;;;;;;;;3.40;93.90;;;;;;4317912;33;44215;-81
2022/04/03 03:33:46;;;;;;;;;;;3.40;93.90;;;;;;4317539;33;42779;-83
2022/04/03 03:36:13;;;;;;;;;;;3.40;94.00;;;;;;4304862;33;44327;-83
2022/04/03 03:38:40;;;;;;;;;;;3.30;94.00;;;;;;4304900;33;43516;-82
2022/04/03 03:41:07;;;;;;;;;;;3.30;94.00;;;;;;4317736;33;42990;-82
2022/04/03 03:43:35;;;;;;;;;;;3.30;94.10;;;;;;4317764;33;44439;-82
2022/04/03 03:46:02;;;;;;;;;;;3.30;94.00;;;;;;4317828;33;44223;-82
2022/04/03 03:48:29;;;;;;;;;;;3.30;94.00;;;;;;4316535;33;43257;-82
2022/04/03 03:50:56;;;;;;;;;;;3.30;94.00;;;;;;4316845;33;44192;-82
2022/04/03 03:53:23;;;;;;;;;;;3.30;94.10;;;;;;4304741;33;45179;-82
2022/04/03 03:55:50;;;;;;;;;;;3.30;94.10;;;;;;4317269;33;43801;-82
2022/04/03 03:58:17;;;;;;;;;;;3.20;94.10;;;;;;4316115;33;43910;-83
2022/04/03 04:00:45;;;;;;;;;;;3.20;94.10;;;;;;4317653;33;42661;-83
2022/04/03 04:03:12;;;;;;;;;;;3.20;93.90;;;;;;4316034;33;44047;-82
2022/04/03 04:05:40;;;;;;;;;;;3.20;93.60;;;;;;4317136;33;43930;-82
2022/04/03 04:08:08;;;;;;;;;;;3.10;93.90;;;;;;4317032;33;44217;-82
2022/04/03 04:10:35;;;;;;;;;;;3.20;93.90;;;;;;4303901;33;43128;-82
2022/04/03 04:13:03;;;;;;;;;;;3.10;94.10;;;;;;4317267;33;42960;-82
2022/04/03 04:15:30;;;;;;;;;;;3.10;93.70;;;;;;4317377;33;44034;-81
2022/04/03 04:17:57;;;;;;;;;;;3.10;93.80;;;;;;4316011;33;44268;-82
2022/04/03 04:20:25;;;;;;;;;;;3.10;93.90;;;;;;4303972;33;43279;-82
2022/04/03 04:22:52;;;;;;;;;;;3.10;93.90;;;;;;4304261;33;44215;-82
2022/04/03 04:25:19;;;;;;;;;;;3.10;93.80;;;;;;4317259;33;43439;-82
2022/04/03 04:27:47;;;;;;;;;;;3.10;93.90;;;;;;4303174;33;43037;-82
2022/04/03 04:30:15;;;;;;;;;;;3.10;93.70;;;;;;4317123;33;43903;-83
2022/04/03 04:32:43;;;;;;;;;;;3.10;93.70;;;;;;4303557;33;44017;-82
2022/04/03 04:35:10;;;;;;;;;;;3.10;93.80;;;;;;4304098;33;44223;-82
2022/04/03 04:37:37;;;;;;;;;;;3.10;93.80;;;;;;4317043;33;44667;-82
2022/04/03 04:40:05;;;;;;;;;;;3.00;93.80;;;;;;4303825;33;43287;-82
2022/04/03 04:42:32;;;;;;;;;;;3.00;93.70;;;;;;4316790;33;44798;-82
2022/04/03 04:44:59;;;;;;;;;;;3.00;93.70;;;;;;4303821;33;44360;-82
2022/04/03 04:47:32;;;;;;;;;;;3.00;93.70;;;;;;4317025;33;43222;-83
2022/04/03 04:49:59;;;;;;;;;;;3.00;93.70;;;;;;4317279;33;44170;-82
2022/04/03 04:52:27;;;;;;;;;;;3.00;93.60;;;;;;4315903;33;44209;-82
2022/04/03 04:54:54;;;;;;;;;;;3.00;93.70;;;;;;4316799;33;45174;-82
2022/04/03 04:57:21;;;;;;;;;;;3.00;93.70;;;;;;4315733;33;43008;-81
2022/04/03 04:59:48;;;;;;;;;;;3.00;93.70;;;;;;4316310;33;43812;-82
2022/04/03 05:02:15;;;;;;;;;;;3.00;94.00;;;;;;4315142;33;43058;-81
2022/04/03 05:04:42;;;;;;;;;;;3.00;93.50;;;;;;4316468;33;44909;-82
2022/04/03 05:07:11;;;;;;;;;;;2.90;93.60;;;;;;4303148;33;43532;-82
2022/04/03 05:09:38;;;;;;;;;;;2.90;93.20;;;;;;4303548;33;43880;-82
2022/04/03 05:12:05;;;;;;;;;;;2.90;93.40;;;;;;4303525;33;43910;-82
2022/04/03 05:14:32;;;;;;;;;;;2.80;93.30;;;;;;4316218;33;42288;-82
2022/04/03 05:17:00;;;;;;;;;;;2.80;93.40;;;;;;4303209;33;43465;-82
2022/04/03 05:19:27;;;;;;;;;;;2.80;93.40;;;;;;4316057;33;44300;-82
2022/04/03 05:21:54;;;;;;;;;;;2.80;93.50;;;;;;4302948;33;42906;-82
2022/04/03 05:24:21;;;;;;;;;;;2.80;93.60;;;;;;4315408;33;46056;-82
2022/04/03 05:26:48;;;;;;;;;;;2.80;93.70;;;;;;4302886;33;42866;-82
2022/04/03 05:29:15;;;;;;;;;;;2.80;93.60;;;;;;4316071;33;43814;-82
2022/04/03 05:31:43;;;;;;;;;;;2.80;93.60;;;;;;4316518;33;43351;-81
2022/04/03 05:34:10;;;;;;;;;;;2.70;93.50;;;;;;4316114;33;43966;-82
2022/04/03 05:36:37;;;;;;;;;;;2.80;93.60;;;;;;4303215;33;43237;-82
2022/04/03 05:39:05;;;;;;;;;;;2.80;93.70;;;;;;4316003;33;43998;-82
2022/04/03 05:41:33;;;;;;;;;;;2.70;93.60;;;;;;4315804;33;43431;-81
2022/04/03 05:44:01;;;;;;;;;;;2.80;93.70;;;;;;4315847;33;43128;-82
2022/04/03 05:46:28;;;;;;;;;;;2.70;93.60;;;;;;4316265;33;43731;-82
2022/04/03 05:48:56;;;;;;;;;;;2.70;93.60;;;;;;4302705;33;43889;-82
2022/04/03 05:51:23;;;;;;;;;;;2.70;93.60;;;;;;4314637;33;43872;-81
2022/04/03 05:53:50;;;;;;;;;;;2.70;93.60;;;;;;4302895;33;43079;-82
2022/04/03 05:56:17;;;;;;;;;;;2.60;93.50;;;;;;4302507;33;45207;-82
2022/04/03 05:58:45;;;;;;;;;;;2.70;93.70;;;;;;4315896;33;43937;-82
2022/04/03 06:01:12;;;;;;;;;;;2.70;93.70;;;;;;4315459;33;44611;-82
2022/04/03 06:03:39;;;;;;;;;;;2.70;93.70;;;;;;4315048;33;43826;-81
2022/04/03 06:06:06;;;;;;;;;;;2.70;93.70;;;;;;4314952;33;44203;-81
2022/04/03 06:08:33;;;;;;;;;;;2.60;93.80;;;;;;4302916;33;43347;-81
2022/04/03 06:11:00;;;;;;;;;;;2.70;93.90;;;;;;4315578;33;42627;-81
2022/04/03 06:13:27;;;;;;;;;;;2.60;93.70;;;;;;4315658;33;42970;-81
2022/04/03 06:15:55;;;;;;;;;;;2.60;93.90;;;;;;4302377;33;44118;-81
2022/04/03 06:18:22;;;;;;;;;;;2.60;93.90;;;;;;4302765;33;43937;-82
2022/04/03 06:20:50;;;;;;;;;;;2.60;93.90;;;;;;4302369;33;43271;-82
2022/04/03 06:23:18;;;;;;;;;;;2.60;94.30;;;;;;4315902;33;42955;-82
2022/04/03 06:25:47;;;;;;;;;;;2.60;94.10;;;;;;4302900;33;43038;-82
2022/04/03 06:28:14;;;;;;;;;;;2.60;94.10;;;;;;4315902;33;44034;-81
2022/04/03 06:30:42;;;;;;;;;;;2.60;94.10;;;;;;4315690;33;43151;-81
2022/04/03 06:33:09;;;;;;;;;;;2.60;94.10;;;;;;4315699;33;44162;-82
2022/04/03 06:35:37;;;;;;;;;;;2.60;94.20;;;;;;4315330;33;43252;-81
2022/04/03 06:38:10;;;;;;;;;;;2.60;94.30;;;;;;4315415;33;43788;-82
2022/04/03 06:40:37;;;;;;;;;;;2.60;94.30;;;;;;4302868;33;44084;-81
2022/04/03 06:43:04;;;;;;;;;;;2.60;94.20;;;;;;4302117;33;43345;-82
2022/04/03 06:45:31;;;;;;;;;;;2.60;94.30;;;;;;4302561;33;42214;-82
2022/04/03 06:48:05;;;;;;;;;;;2.50;94.70;;;;;;4315806;33;43914;-83
2022/04/03 06:50:32;;;;;;;;;;;2.60;94.40;;;;;;4315803;33;43998;-82
2022/04/03 06:52:59;;;;;;;;;;;2.60;94.50;;;;;;4318482;33;43938;-82
2022/04/03 06:55:26;;;;;;;;;;;2.60;94.20;;;;;;4317158;33;43305;-82
2022/04/03 06:57:53;;;;;;;;;;;2.50;94.10;;;;;;4318324;33;43942;-82
2022/04/03 07:00:20;;;;;;;;;;;2.60;94.10;;;;;;4317970;33;43836;-82
2022/04/03 07:02:48;;;;;;;;;;;2.50;94.00;;;;;;4316783;33;43959;-82
2022/04/03 07:05:16;;;;;;;;;;;2.50;94.10;;;;;;4317297;33;45576;-82
2022/04/03 07:07:43;;;;;;;;;;;2.50;93.90;;;;;;4318344;33;43067;-83
2022/04/03 07:10:11;;;;;;;;;;;2.50;93.90;;;;;;4305057;33;43881;-83
2022/04/03 07:12:38;;;;;;;;;;;2.50;93.80;;;;;;4304916;33;43902;-83
2022/04/03 07:15:08;;;;;;;;;;;2.50;93.90;;;;;;4304800;33;44392;-82
2022/04/03 07:17:35;;;;;;;;;;;2.50;94.10;;;;;;4305050;33;43261;-82
2022/04/03 07:20:03;;;;;;;;;;;2.50;94.00;;;;;;4317789;33;43287;-82
2022/04/03 07:22:30;;;;;;;;;;;2.50;94.10;;;;;;4305113;33;44236;-82
2022/04/03 07:24:57;;;;;;;;;;;2.50;94.20;;;;;;4317708;33;43419;-83
2022/04/03 07:27:24;;;;;;;;;;;2.50;94.10;;;;;;4317950;33;42638;-82
2022/04/03 07:29:54;;;;;;;;;;;2.50;94.10;;;;;;4316866;33;43252;-82
2022/04/03 07:32:21;;;;;;;;;;;2.50;94.10;;;;;;4317967;33;43522;-82
2022/04/03 07:34:48;;;;;;;;;;;2.50;93.90;;;;;;4318186;33;41443;-82
2022/04/03 07:37:15;;;;;;;;;;;2.50;94.20;;;;;;4305003;33;43267;-83
2022/04/03 07:39:43;;;;;;;;;;;2.50;94.10;;;;;;4304821;33;45474;-81
2022/04/03 07:42:10;;;;;;;;;;;2.60;94.10;;;;;;4317732;33;42738;-81
2022/04/03 07:44:39;;;;;;;;;;;2.60;94.10;;;;;;4317752;33;43094;-82
2022/04/03 07:47:06;;;;;;;;;;;2.60;94.10;;;;;;4317769;33;45919;-82
2022/04/03 07:49:33;;;;;;;;;;;2.60;94.30;;;;;;4317487;33;44146;-82
2022/04/03 07:52:00;;;;;;;;;;;2.60;94.40;;;;;;4317380;33;44750;-82
2022/04/03 07:54:28;;;;;;;;;;;2.60;94.50;;;;;;4316397;33;42522;-82
2022/04/03 07:56:55;;;;;;;;;;;2.60;94.40;;;;;;4316502;33;43014;-82
2022/04/03 07:59:22;;;;;;;;;;;2.60;94.30;;;;;;4316420;33;43360;-82
2022/04/03 08:01:49;;;;;;;;;;;2.60;94.10;;;;;;4317285;33;42525;-83
2022/04/03 08:04:17;;;;;;;;;;;2.60;93.90;;;;;;4303235;33;44117;-82
2022/04/03 08:06:44;;;;;;;;;;;2.70;94.00;;;;;;4317612;33;43358;-82
2022/04/03 08:09:16;;;;;;;;;;;2.70;94.00;;;;;;4305114;33;45251;-82
2022/04/03 08:11:44;;;;;;;;;;;2.70;94.30;;;;;;4315978;33;42344;-82
2022/04/03 08:14:11;;;;;;;;;;;2.70;94.30;;;;;;4316389;33;43914;-82
2022/04/03 08:16:38;;;;;;;;;;;2.70;94.10;;;;;;4316987;33;42663;-82
2022/04/03 08:19:06;;;;;;;;;;;2.70;94.20;;;;;;4317138;33;42685;-82
2022/04/03 08:21:33;;;;;;;;;;;2.70;94.00;;;;;;4303788;33;43136;-82
2022/04/03 08:24:01;;;;;;;;;;;2.70;94.20;;;;;;4304105;33;43243;-82
2022/04/03 08:26:28;;;;;;;;;;;2.80;94.40;;;;;;4316822;33;46093;-83
2022/04/03 08:28:55;;;;;;;;;;;2.80;94.20;;;;;;4303658;33;44060;-82
2022/04/03 08:31:23;;;;;;;;;;;2.80;93.90;;;;;;4303854;33;43020;-82
2022/04/03 08:33:53;;;;;;;;;;;2.80;94.00;;;;;;4303814;33;44032;-82
2022/04/03 08:36:20;;;;;;;;;;;2.80;93.90;;;;;;4303979;33;44945;-82
2022/04/03 08:38:50;;;;;;;;;;;2.80;94.00;;;;;;4303741;33;43885;-82
2022/04/03 08:41:17;;;;;;;;;;;2.80;94.20;;;;;;4317040;33;44082;-82
2022/04/03 08:43:47;;;;;;;;;;;2.80;94.40;;;;;;4303440;33;45722;-83
2022/04/03 08:46:16;;;;;;;;;;;2.90;94.40;;;;;;4317232;33;44110;-83
2022/04/03 08:48:45;;;;;;;;;;;2.90;94.30;;;;;;4303794;33;44227;-83
2022/04/03 08:51:12;;;;;;;;;;;2.90;94.00;;;;;;4303971;33;45636;-84
2022/04/03 08:53:39;;;;;;;;;;;2.90;94.10;;;;;;4303856;33;43949;-84
2022/04/03 08:56:07;;;;;;;;;;;2.90;94.10;;;;;;4316380;33;43874;-84
2022/04/03 08:58:34;;;;;;;;;;;2.90;93.80;;;;;;4316397;33;43950;-84
2022/04/03 09:01:01;;;;;;;;;;;2.90;93.90;;;;;;4316264;33;45703;-84
2022/04/03 09:03:28;;;;;;;;;;;2.90;94.00;;;;;;4303373;33;45016;-84
2022/04/03 09:06:16;;;;;;;;;;;2.90;94.20;;;;;;4316480;33;44480;-84
2022/04/03 09:08:43;;;;;;;;;;;2.90;94.30;;;;;;4315496;33;44349;-84
2022/04/03 09:11:11;;;;;;;;;;;2.90;94.40;;;;;;4303057;33;44356;-84
2022/04/03 09:13:40;;;;;;;;;;;3.00;94.40;;;;;;4316050;33;43292;-84
2022/04/03 09:16:07;;;;;;;;;;;3.00;94.50;;;;;;4316134;33;42949;-85
2022/04/03 09:18:45;;;;;;;;;;;3.00;94.70;;;;;;4303570;33;43136;-84
2022/04/03 09:21:19;;;;;;;;;;;3.00;94.70;;;;;;4316899;33;20015;-84
2022/04/03 09:23:56;;;;;;;;;;;3.00;94.60;;;;;;4316080;33;45178;-84
2022/04/03 09:26:24;;;;;;;;;;;3.00;94.60;;;;;;4316326;33;44544;-84
2022/04/03 09:29:04;;;;;;;;;;;3.00;94.70;;;;;;4303439;33;44024;-84
2022/04/03 09:31:31;;;;;;;;;;;3.10;94.80;;;;;;4303100;33;43527;-84
2022/04/03 09:34:00;;;;;;;;;;;3.10;94.60;;;;;;4302960;33;42974;-84
2022/04/03 09:36:31;;;;;;;;;;;3.10;94.60;;;;;;4302893;33;43827;-84
2022/04/03 09:39:08;;;;;;;;;;;3.10;94.70;;;;;;4302826;33;44148;-84
2022/04/03 09:41:55;;;;;;;;;;;3.10;94.70;;;;;;4303230;33;44199;-84
2022/04/03 09:44:26;;;;;;;;;;;3.10;94.70;;;;;;4302859;33;43393;-84
2022/04/03 09:47:14;;;;;;;;;;;3.10;94.40;;;;;;4315810;33;42434;-84
2022/04/03 09:49:42;;;;;;;;;;;3.20;94.40;;;;;;4303060;33;43855;-84
2022/04/03 09:52:10;;;;;;;;;;;3.20;94.40;;;;;;4316112;33;46343;-84
2022/04/03 09:54:38;;;;;;;;;;;3.20;94.50;;;;;;4302590;33;44230;-84
2022/04/03 09:57:24;;;;;;;;;;;3.20;94.90;;;;;;4302737;33;42898;-84
2022/04/03 09:59:54;;;;;;;;;;;3.20;94.40;;;;;;4303106;33;44070;-83
2022/04/03 10:02:23;;;;;;;;;;;3.20;94.40;;;;;;4315708;33;44688;-83
2022/04/03 10:04:51;;;;;;;;;;;3.20;94.40;;;;;;4314931;33;44301;-83
2022/04/03 10:07:20;;;;;;;;;;;3.30;94.20;;;;;;4302489;33;42888;-83
2022/04/03 10:09:48;;;;;;;;;;;3.20;94.00;;;;;;4302595;33;44681;-84
2022/04/03 10:12:20;;;;;;;;;;;3.30;94.10;;;;;;4302508;33;42525;-84
2022/04/03 10:14:49;;;;;;;;;;;3.30;94.30;;;;;;4302804;33;43197;-84
2022/04/03 10:17:17;;;;;;;;;;;3.30;94.50;;;;;;4302379;33;43942;-84
2022/04/03 10:19:45;;;;;;;;;;;3.30;94.40;;;;;;4316043;33;43957;-83
2022/04/03 10:22:20;;;;;;;;;;;3.30;94.30;;;;;;4303021;33;20025;-84
2022/04/03 10:24:53;;;;;;;;;;;3.30;94.30;;;;;;4315682;33;44121;-83
2022/04/03 10:27:23;;;;;;;;;;;3.40;94.30;;;;;;4317757;33;44477;-83
2022/04/03 10:29:54;;;;;;;;;;;3.40;94.40;;;;;;4318857;33;43337;-84
2022/04/03 10:32:23;;;;;;;;;;;3.40;94.20;;;;;;4305997;33;43372;-83
2022/04/03 10:34:51;;;;;;;;;;;3.40;94.20;;;;;;4305343;33;46007;-83
2022/04/03 10:37:38;;;;;;;;;;;3.40;94.10;;;;;;4318649;33;43782;-83
2022/04/03 10:40:09;;;;;;;;;;;3.50;94.20;;;;;;4318701;33;45226;-83
2022/04/03 10:42:49;;;;;;;;;;;3.50;94.30;;;;;;4318487;33;42913;-84
2022/04/03 10:45:18;;;;;;;;;;;3.50;94.30;;;;;;4318695;33;43414;-83
2022/04/03 10:47:46;;;;;;;;;;;3.50;94.30;;;;;;4305570;33;43239;-83
2022/04/03 10:50:13;;;;;;;;;;;3.50;94.10;;;;;;4305562;33;44122;-83
2022/04/03 10:52:40;;;;;;;;;;;3.50;94.30;;;;;;4318854;33;20014;-83
2022/04/03 10:55:33;;;;;;;;;;;3.60;94.50;;;;;;4318455;33;44148;-83
2022/04/03 10:58:06;;;;;;;;;;;3.60;94.40;;;;;;4314328;33;44079;-83
2022/04/03 11:00:34;;;;;;;;;;;3.60;94.50;;;;;;4305532;33;43285;-83
2022/04/03 11:03:21;;;;;;;;;;;3.60;94.60;;;;;;4318265;33;43496;-82
2022/04/03 11:05:51;;;;;;;;;;;3.70;94.60;;;;;;4318259;33;44375;-83
2022/04/03 11:08:18;;;;;;;;;;;3.70;94.70;;;;;;4305136;33;42246;-82
2022/04/03 11:10:48;;;;;;;;;;;3.70;94.60;;;;;;4318381;33;44213;-81
2022/04/03 11:13:19;;;;;;;;;;;3.70;94.70;;;;;;4317772;33;44500;-81
2022/04/03 11:15:51;;;;;;;;;;;3.80;94.40;;;;;;4305187;33;44587;-81
2022/04/03 11:18:47;;;;;;;;;;;3.80;94.60;;;;;;4318155;33;45185;-82
2022/04/03 11:21:17;;;;;;;;;;;3.80;94.60;;;;;;4315721;33;44236;-81
2022/04/03 11:24:04;;;;;;;;;;;3.90;94.80;;;;;;4318933;33;20037;-81
2022/04/03 11:26:32;;;;;;;;;;;3.90;94.70;;;;;;4316959;33;42510;-81
2022/04/03 11:29:03;;;;;;;;;;;3.90;94.70;;;;;;4317841;33;42866;-81
2022/04/03 11:31:31;;;;;;;;;;;4.00;94.80;;;;;;4317715;33;45696;-81
2022/04/03 11:33:58;;;;;;;;;;;4.00;94.40;;;;;;4317569;33;43882;-81
2022/04/03 11:36:32;;;;;;;;;;;4.00;94.40;;;;;;4304904;33;44984;-82
2022/04/03 11:39:00;;;;;;;;;;;4.10;94.40;;;;;;4304405;33;42796;-82
2022/04/03 11:41:29;;;;;;;;;;;4.10;94.10;;;;;;4317860;33;43271;-82
2022/04/03 11:44:03;;;;;;;;;;;4.10;94.20;;;;;;4304991;33;42858;-81
2022/04/03 11:46:31;;;;;;;;;;;4.10;94.30;;;;;;4304234;33;43274;-81
2022/04/03 11:48:58;;;;;;;;;;;4.10;94.30;;;;;;4304253;33;44112;-81
2022/04/03 11:51:28;;;;;;;;;;;4.10;94.10;;;;;;4317253;33;42559;-81
2022/04/03 11:53:56;;;;;;;;;;;4.10;94.00;;;;;;4305098;33;20006;-81
2022/04/03 11:56:23;;;;;;;;;;;4.20;93.70;;;;;;4304356;33;44202;-81
2022/04/03 11:58:54;;;;;;;;;;;4.20;93.60;;;;;;4316249;33;43215;-81
2022/04/03 12:01:34;;;;;;;;;;;4.20;93.60;;;;;;4317412;33;43907;-81
2022/04/03 12:04:08;;;;;;;;;;;4.20;93.90;;;;;;4304378;33;43961;-82
2022/04/03 12:06:35;;;;;;;;;;;4.30;93.20;;;;;;4317675;33;44282;-82
2022/04/03 12:09:09;;;;;;;;;;;4.30;93.50;;;;;;4317385;33;42887;-82
2022/04/03 12:11:41;;;;;;;;;;;4.30;93.60;;;;;;4304475;33;43574;-82
2022/04/03 12:14:08;;;;;;;;;;;4.30;92.70;;;;;;4304336;33;45317;-81
2022/04/03 12:16:39;;;;;;;;;;;4.30;93.00;;;;;;4304247;33;43887;-81
2022/04/03 12:19:15;;;;;;;;;;;4.30;93.20;;;;;;4317036;33;43875;-81
2022/04/03 12:21:42;;;;;;;;;;;4.40;93.50;;;;;;4304130;33;44109;-81
2022/04/03 12:24:13;;;;;;;;;;;4.40;93.90;;;;;;4304787;33;20407;-81
2022/04/03 12:26:45;;;;;;;;;;;4.40;93.40;;;;;;4317387;33;43469;-81
2022/04/03 12:29:13;;;;;;;;;;;4.40;93.70;;;;;;4304105;33;44200;-81
2022/04/03 12:31:40;;;;;;;;;;;4.40;93.20;;;;;;4303580;33;45079;-81
2022/04/03 12:34:14;;;;;;;;;;;4.40;93.30;;;;;;4316766;33;43823;-81
2022/04/03 12:36:43;;;;;;;;;;;4.40;93.20;;;;;;4303730;33;42814;-82
2022/04/03 12:39:28;;;;;;;;;;;4.50;93.00;;;;;;4303589;33;42310;-81
2022/04/03 12:41:56;;;;;;;;;;;4.50;92.80;;;;;;4316769;33;44081;-81
2022/04/03 12:44:23;;;;;;;;;;;4.50;93.10;;;;;;4303620;33;44058;-81
2022/04/03 12:46:50;;;;;;;;;;;4.50;93.70;;;;;;4303774;33;43116;-81
2022/04/03 12:49:17;;;;;;;;;;;4.50;93.10;;;;;;4316383;33;42287;-81
2022/04/03 12:51:48;;;;;;;;;;;4.50;92.70;;;;;;4303831;33;44368;-81
2022/04/03 12:54:15;;;;;;;;;;;4.60;92.50;;;;;;4304555;33;19995;-82
2022/04/03 12:59:37;;;;;;;;;;;4.60;92.50;;;;;;4316991;33;44196;-82
2022/04/03 13:02:08;;;;;;;;;;;4.60;92.40;;;;;;4316167;33;43002;-83
2022/04/03 13:04:39;;;;;;;;;;;4.70;93.00;;;;;;4303215;33;46022;-82
2022/04/03 13:07:10;;;;;;;;;;;4.70;92.70;;;;;;4303353;33;44011;-81
2022/04/03 13:09:44;;;;;;;;;;;4.70;92.40;;;;;;4316318;33;42579;-81
2022/04/03 13:12:11;;;;;;;;;;;4.80;92.40;;;;;;4303714;33;43344;-81
2022/04/03 13:14:38;;;;;;;;;;;4.80;92.60;;;;;;4316184;33;43264;-81
2022/04/03 13:17:06;;;;;;;;;;;4.90;92.50;;;;;;4303432;33;43385;-82
2022/04/03 13:19:38;;;;;;;;;;;4.80;92.50;;;;;;4316252;33;43950;-82
2022/04/03 13:22:08;;;;;;;;;;;4.90;92.90;;;;;;4303564;33;44034;-80
2022/04/03 13:24:35;;;;;;;;;;;4.90;92.70;;;;;;4304233;33;20041;-81
2022/04/03 13:27:03;;;;;;;;;;;4.90;92.80;;;;;;4316266;33;42989;-81
2022/04/03 13:29:32;;;;;;;;;;;5.00;92.90;;;;;;4303280;33;46007;-81
2022/04/03 13:31:59;;;;;;;;;;;5.00;92.70;;;;;;4315304;33;45163;-81
2022/04/03 13:34:26;;;;;;;;;;;5.00;92.70;;;;;;4316336;33;44188;-81
2022/04/03 13:36:54;;;;;;;;;;;5.00;92.60;;;;;;4302957;33;43015;-81
2022/04/03 13:39:21;;;;;;;;;;;5.10;92.40;;;;;;4315281;33;43175;-81
2022/04/03 13:41:49;;;;;;;;;;;5.10;92.80;;;;;;4315865;33;44295;-81
2022/04/03 13:44:18;;;;;;;;;;;5.10;92.90;;;;;;4303156;33;43316;-82
2022/04/03 13:46:45;;;;;;;;;;;5.10;93.20;;;;;;4315780;33;43106;-81
2022/04/03 13:49:13;;;;;;;;;;;5.10;93.00;;;;;;4316095;33;43907;-81
2022/04/03 13:51:40;;;;;;;;;;;5.20;92.50;;;;;;4303064;33;44275;-82
2022/04/03 13:54:07;;;;;;;;;;;5.20;92.60;;;;;;4315998;33;45215;-81
2022/04/03 13:56:36;;;;;;;;;;;5.20;93.20;;;;;;4304006;33;19998;-81
2022/04/03 13:59:04;;;;;;;;;;;5.30;92.90;;;;;;4314917;33;43164;-81
2022/04/03 14:01:33;;;;;;;;;;;5.30;92.50;;;;;;4314715;33;44545;-81
2022/04/03 14:04:02;;;;;;;;;;;5.30;92.70;;;;;;4303246;33;44346;-81
2022/04/03 14:06:30;;;;;;;;;;;5.30;92.70;;;;;;4314296;33;45392;-81
2022/04/03 14:08:57;;;;;;;;;;;5.40;92.80;;;;;;4315901;33;42754;-81
2022/04/03 14:11:24;;;;;;;;;;;5.40;92.80;;;;;;4302804;33;44140;-81
2022/04/03 14:13:51;;;;;;;;;;;5.40;92.80;;;;;;4302477;33;42603;-80
2022/04/03 14:16:18;;;;;;;;;;;5.50;92.70;;;;;;4316222;33;43877;-81
2022/04/03 14:18:45;;;;;;;;;;;5.50;92.90;;;;;;4315824;33;42799;-81
2022/04/03 14:21:12;;;;;;;;;;;5.50;93.20;;;;;;4302348;33;42960;-80
2022/04/03 14:23:39;;;;;;;;;;;5.50;92.90;;;;;;4315779;33;43123;-80
2022/04/03 14:26:07;;;;;;;;;;;5.50;92.60;;;;;;4315338;33;43840;-81
2022/04/03 14:28:35;;;;;;;;;;;5.50;92.40;;;;;;4315518;33;42452;-81
2022/04/03 14:31:03;;;;;;;;;;;5.60;92.80;;;;;;4315548;33;43249;-81
2022/04/03 14:33:31;;;;;;;;;;;5.60;92.50;;;;;;4302718;33;42626;-81
2022/04/03 14:35:58;;;;;;;;;;;5.60;92.60;;;;;;4315745;33;43944;-81
2022/04/03 14:38:26;;;;;;;;;;;5.60;93.10;;;;;;4315727;33;42845;-81
2022/04/03 14:40:53;;;;;;;;;;;5.70;92.70;;;;;;4302700;33;42861;-82